sensor_id;sensor_type;location;lat;lon;timestamp;P1;durP1;ratioP1;P2;durP2;ratioP2
11496;SDS011;5805;51.542;7.230;2023-03-24T00:01:42;4.03;;;1.60;;
11496;SDS011;5805;51.542;7.230;2023-03-24T00:04:08;1.50;;;1.40;;
11496;SDS011;5805;51.542;7.230;2023-03-24T00:06:33;2.72;;;1.50;;
11496;SDS011;5805;51.542;7.230;2023-03-24T00:08:59;2.42;;;1.50;;
11496;SDS011;5805;51.542;7.230;2023-03-24T00:11:26;2.38;;;1.50;;
11496;SDS011;5805;51.542;7.230;2023-03-24T00:13:52;4.20;;;1.40;;
11496;SDS011;5805;51.542;7.230;2023-03-24T00:16:18;1.58;;;1.30;;
11496;SDS011;5805;51.542;7.230;2023-03-24T00:18:44;3.50;;;1.50;;
11496;SDS011;5805;51.542;7.230;2023-03-24T00:21:10;2.33;;;1.25;;
11496;SDS011;5805;51.542;7.230;2023-03-24T00:23:35;3.42;;;1.55;;
11496;SDS011;5805;51.542;7.230;2023-03-24T00:26:02;1.52;;;1.27;;
11496;SDS011;5805;51.542;7.230;2023-03-24T00:28:31;2.95;;;1.55;;
11496;SDS011;5805;51.542;7.230;2023-03-24T00:30:58;1.20;;;1.10;;
11496;SDS011;5805;51.542;7.230;2023-03-24T00:33:24;2.35;;;1.10;;
11496;SDS011;5805;51.542;7.230;2023-03-24T00:35:50;2.40;;;1.23;;
11496;SDS011;5805;51.542;7.230;2023-03-24T00:38:16;5.13;;;1.50;;
11496;SDS011;5805;51.542;7.230;2023-03-24T00:40:43;1.30;;;1.20;;
11496;SDS011;5805;51.542;7.230;2023-03-24T00:43:09;2.35;;;1.25;;
11496;SDS011;5805;51.542;7.230;2023-03-24T00:45:36;2.10;;;1.38;;
11496;SDS011;5805;51.542;7.230;2023-03-24T00:48:02;2.10;;;1.20;;
11496;SDS011;5805;51.542;7.230;2023-03-24T00:50:28;1.42;;;1.10;;
11496;SDS011;5805;51.542;7.230;2023-03-24T00:52:54;1.75;;;1.17;;
11496;SDS011;5805;51.542;7.230;2023-03-24T00:55:20;1.70;;;1.20;;
11496;SDS011;5805;51.542;7.230;2023-03-24T00:57:46;2.47;;;1.40;;
11496;SDS011;5805;51.542;7.230;2023-03-24T01:00:12;1.67;;;1.40;;
11496;SDS011;5805;51.542;7.230;2023-03-24T01:02:39;2.03;;;1.00;;
11496;SDS011;5805;51.542;7.230;2023-03-24T01:05:05;1.38;;;1.20;;
11496;SDS011;5805;51.542;7.230;2023-03-24T01:07:31;2.75;;;1.17;;
11496;SDS011;5805;51.542;7.230;2023-03-24T01:09:57;1.85;;;1.27;;
11496;SDS011;5805;51.542;7.230;2023-03-24T01:12:24;1.23;;;1.00;;
11496;SDS011;5805;51.542;7.230;2023-03-24T01:14:50;1.85;;;1.10;;
11496;SDS011;5805;51.542;7.230;2023-03-24T01:17:16;2.33;;;1.20;;
11496;SDS011;5805;51.542;7.230;2023-03-24T01:19:43;2.88;;;1.65;;
11496;SDS011;5805;51.542;7.230;2023-03-24T01:22:09;2.95;;;1.40;;
11496;SDS011;5805;51.542;7.230;2023-03-24T01:24:35;3.75;;;1.48;;
11496;SDS011;5805;51.542;7.230;2023-03-24T01:27:01;1.60;;;1.17;;
11496;SDS011;5805;51.542;7.230;2023-03-24T01:29:27;4.35;;;1.65;;
11496;SDS011;5805;51.542;7.230;2023-03-24T01:31:53;1.70;;;1.10;;
11496;SDS011;5805;51.542;7.230;2023-03-24T01:34:18;2.67;;;1.20;;
11496;SDS011;5805;51.542;7.230;2023-03-24T01:36:46;2.55;;;1.20;;
11496;SDS011;5805;51.542;7.230;2023-03-24T01:39:11;1.65;;;1.23;;
11496;SDS011;5805;51.542;7.230;2023-03-24T01:41:38;1.27;;;1.08;;
11496;SDS011;5805;51.542;7.230;2023-03-24T01:46:48;3.30;;;1.42;;
11496;SDS011;5805;51.542;7.230;2023-03-24T01:49:14;2.35;;;1.40;;
11496;SDS011;5805;51.542;7.230;2023-03-24T01:51:42;1.60;;;1.38;;
11496;SDS011;5805;51.542;7.230;2023-03-24T01:54:11;1.80;;;1.30;;
11496;SDS011;5805;51.542;7.230;2023-03-24T01:56:41;1.95;;;1.27;;
11496;SDS011;5805;51.542;7.230;2023-03-24T01:59:09;1.50;;;1.30;;
11496;SDS011;5805;51.542;7.230;2023-03-24T02:01:37;2.17;;;1.30;;
11496;SDS011;5805;51.542;7.230;2023-03-24T02:04:03;2.95;;;1.52;;
11496;SDS011;5805;51.542;7.230;2023-03-24T02:06:31;2.88;;;1.33;;
11496;SDS011;5805;51.542;7.230;2023-03-24T02:08:59;2.30;;;1.52;;
11496;SDS011;5805;51.542;7.230;2023-03-24T02:11:27;2.83;;;1.40;;
11496;SDS011;5805;51.542;7.230;2023-03-24T02:13:55;1.35;;;1.25;;
11496;SDS011;5805;51.542;7.230;2023-03-24T02:16:24;3.15;;;1.67;;
11496;SDS011;5805;51.542;7.230;2023-03-24T02:19:08;1.90;;;1.67;;
11496;SDS011;5805;51.542;7.230;2023-03-24T02:25:04;3.13;;;1.65;;
11496;SDS011;5805;51.542;7.230;2023-03-24T02:28:11;2.30;;;1.58;;
11496;SDS011;5805;51.542;7.230;2023-03-24T02:30:54;1.77;;;1.60;;
11496;SDS011;5805;51.542;7.230;2023-03-24T02:33:55;2.13;;;1.40;;
11496;SDS011;5805;51.542;7.230;2023-03-24T02:39:49;2.45;;;1.70;;
11496;SDS011;5805;51.542;7.230;2023-03-24T02:42:29;2.15;;;1.73;;
11496;SDS011;5805;51.542;7.230;2023-03-24T02:45:07;2.05;;;1.70;;
11496;SDS011;5805;51.542;7.230;2023-03-24T02:47:43;2.33;;;1.90;;
11496;SDS011;5805;51.542;7.230;2023-03-24T02:50:16;1.48;;;1.38;;
11496;SDS011;5805;51.542;7.230;2023-03-24T02:52:48;1.40;;;1.30;;
11496;SDS011;5805;51.542;7.230;2023-03-24T02:55:19;2.10;;;1.60;;
11496;SDS011;5805;51.542;7.230;2023-03-24T02:57:51;2.03;;;1.50;;
11496;SDS011;5805;51.542;7.230;2023-03-24T03:00:21;2.20;;;1.50;;
11496;SDS011;5805;51.542;7.230;2023-03-24T03:02:51;2.45;;;1.77;;
11496;SDS011;5805;51.542;7.230;2023-03-24T03:05:24;1.95;;;1.50;;
11496;SDS011;5805;51.542;7.230;2023-03-24T03:07:54;4.63;;;1.52;;
11496;SDS011;5805;51.542;7.230;2023-03-24T03:10:24;2.35;;;1.80;;
11496;SDS011;5805;51.542;7.230;2023-03-24T03:12:54;1.90;;;1.70;;
11496;SDS011;5805;51.542;7.230;2023-03-24T03:15:23;2.85;;;1.70;;
11496;SDS011;5805;51.542;7.230;2023-03-24T03:17:52;1.95;;;1.63;;
11496;SDS011;5805;51.542;7.230;2023-03-24T03:20:22;6.68;;;2.50;;
11496;SDS011;5805;51.542;7.230;2023-03-24T03:22:51;2.33;;;1.73;;
11496;SDS011;5805;51.542;7.230;2023-03-24T03:25:20;4.18;;;1.92;;
11496;SDS011;5805;51.542;7.230;2023-03-24T03:27:50;3.10;;;1.50;;
11496;SDS011;5805;51.542;7.230;2023-03-24T03:30:19;1.95;;;1.80;;
11496;SDS011;5805;51.542;7.230;2023-03-24T03:32:48;2.30;;;1.60;;
11496;SDS011;5805;51.542;7.230;2023-03-24T03:35:18;1.70;;;1.60;;
11496;SDS011;5805;51.542;7.230;2023-03-24T03:37:49;2.33;;;1.63;;
11496;SDS011;5805;51.542;7.230;2023-03-24T03:40:22;2.88;;;1.70;;
11496;SDS011;5805;51.542;7.230;2023-03-24T03:42:53;3.33;;;1.92;;
11496;SDS011;5805;51.542;7.230;2023-03-24T03:45:19;1.58;;;1.48;;
11496;SDS011;5805;51.542;7.230;2023-03-24T03:47:45;1.95;;;1.58;;
11496;SDS011;5805;51.542;7.230;2023-03-24T03:50:12;2.95;;;1.45;;
11496;SDS011;5805;51.542;7.230;2023-03-24T03:52:38;4.07;;;2.00;;
11496;SDS011;5805;51.542;7.230;2023-03-24T03:55:04;3.10;;;1.38;;
11496;SDS011;5805;51.542;7.230;2023-03-24T03:57:31;3.35;;;1.83;;
11496;SDS011;5805;51.542;7.230;2023-03-24T04:00:00;4.00;;;1.85;;
11496;SDS011;5805;51.542;7.230;2023-03-24T04:02:28;2.13;;;1.83;;
11496;SDS011;5805;51.542;7.230;2023-03-24T04:05:15;2.92;;;1.52;;
11496;SDS011;5805;51.542;7.230;2023-03-24T04:07:58;2.72;;;1.58;;
11496;SDS011;5805;51.542;7.230;2023-03-24T04:10:34;4.13;;;1.67;;
11496;SDS011;5805;51.542;7.230;2023-03-24T04:13:14;3.20;;;1.67;;
11496;SDS011;5805;51.542;7.230;2023-03-24T04:15:46;2.95;;;1.70;;
11496;SDS011;5805;51.542;7.230;2023-03-24T04:18:22;2.10;;;1.67;;
11496;SDS011;5805;51.542;7.230;2023-03-24T04:20:57;3.40;;;2.30;;
11496;SDS011;5805;51.542;7.230;2023-03-24T04:23:37;2.00;;;1.90;;
11496;SDS011;5805;51.542;7.230;2023-03-24T04:26:13;2.75;;;1.70;;
11496;SDS011;5805;51.542;7.230;2023-03-24T04:28:44;4.90;;;2.00;;
11496;SDS011;5805;51.542;7.230;2023-03-24T04:31:19;2.72;;;1.98;;
11496;SDS011;5805;51.542;7.230;2023-03-24T04:33:51;2.30;;;2.00;;
11496;SDS011;5805;51.542;7.230;2023-03-24T04:36:21;2.63;;;1.80;;
11496;SDS011;5805;51.542;7.230;2023-03-24T04:38:53;3.17;;;1.70;;
11496;SDS011;5805;51.542;7.230;2023-03-24T04:41:20;2.45;;;1.52;;
11496;SDS011;5805;51.542;7.230;2023-03-24T04:43:48;2.60;;;1.55;;
11496;SDS011;5805;51.542;7.230;2023-03-24T04:46:14;2.58;;;1.48;;
11496;SDS011;5805;51.542;7.230;2023-03-24T04:48:42;2.13;;;1.60;;
11496;SDS011;5805;51.542;7.230;2023-03-24T04:51:09;2.38;;;1.90;;
11496;SDS011;5805;51.542;7.230;2023-03-24T04:53:36;2.85;;;1.45;;
11496;SDS011;5805;51.542;7.230;2023-03-24T04:56:03;2.50;;;1.63;;
11496;SDS011;5805;51.542;7.230;2023-03-24T04:58:37;1.55;;;1.45;;
11496;SDS011;5805;51.542;7.230;2023-03-24T05:01:03;1.50;;;1.40;;
11496;SDS011;5805;51.542;7.230;2023-03-24T05:03:29;1.73;;;1.42;;
11496;SDS011;5805;51.542;7.230;2023-03-24T05:05:56;2.65;;;1.48;;
11496;SDS011;5805;51.542;7.230;2023-03-24T05:08:21;2.55;;;1.35;;
11496;SDS011;5805;51.542;7.230;2023-03-24T05:10:47;1.90;;;1.33;;
11496;SDS011;5805;51.542;7.230;2023-03-24T05:13:14;2.33;;;1.90;;
11496;SDS011;5805;51.542;7.230;2023-03-24T05:15:40;1.90;;;1.70;;
11496;SDS011;5805;51.542;7.230;2023-03-24T05:18:06;2.35;;;1.88;;
11496;SDS011;5805;51.542;7.230;2023-03-24T05:20:33;2.47;;;1.63;;
11496;SDS011;5805;51.542;7.230;2023-03-24T05:23:00;3.58;;;1.70;;
11496;SDS011;5805;51.542;7.230;2023-03-24T05:25:26;2.03;;;1.77;;
11496;SDS011;5805;51.542;7.230;2023-03-24T05:27:51;2.88;;;1.70;;
11496;SDS011;5805;51.542;7.230;2023-03-24T05:30:17;2.13;;;1.30;;
11496;SDS011;5805;51.542;7.230;2023-03-24T05:32:43;2.22;;;1.55;;
11496;SDS011;5805;51.542;7.230;2023-03-24T05:35:09;2.08;;;1.63;;
11496;SDS011;5805;51.542;7.230;2023-03-24T05:37:34;1.60;;;1.30;;
11496;SDS011;5805;51.542;7.230;2023-03-24T05:40:01;2.15;;;1.50;;
11496;SDS011;5805;51.542;7.230;2023-03-24T05:42:28;3.45;;;1.33;;
11496;SDS011;5805;51.542;7.230;2023-03-24T05:44:54;3.65;;;1.52;;
11496;SDS011;5805;51.542;7.230;2023-03-24T05:47:20;2.15;;;1.20;;
11496;SDS011;5805;51.542;7.230;2023-03-24T05:49:46;1.58;;;1.02;;
11496;SDS011;5805;51.542;7.230;2023-03-24T05:52:12;2.65;;;1.60;;
11496;SDS011;5805;51.542;7.230;2023-03-24T05:54:38;3.45;;;1.65;;
11496;SDS011;5805;51.542;7.230;2023-03-24T05:57:05;3.17;;;1.40;;
11496;SDS011;5805;51.542;7.230;2023-03-24T05:59:31;2.13;;;1.38;;
11496;SDS011;5805;51.542;7.230;2023-03-24T06:01:57;3.10;;;1.30;;
11496;SDS011;5805;51.542;7.230;2023-03-24T06:04:22;2.88;;;1.45;;
11496;SDS011;5805;51.542;7.230;2023-03-24T06:06:48;2.60;;;1.45;;
11496;SDS011;5805;51.542;7.230;2023-03-24T06:09:14;2.75;;;1.48;;
11496;SDS011;5805;51.542;7.230;2023-03-24T06:11:40;3.50;;;1.27;;
11496;SDS011;5805;51.542;7.230;2023-03-24T06:14:07;2.60;;;1.35;;
11496;SDS011;5805;51.542;7.230;2023-03-24T06:16:33;3.25;;;1.35;;
11496;SDS011;5805;51.542;7.230;2023-03-24T06:18:59;3.58;;;1.95;;
11496;SDS011;5805;51.542;7.230;2023-03-24T06:21:24;2.65;;;1.40;;
11496;SDS011;5805;51.542;7.230;2023-03-24T06:23:50;4.32;;;1.48;;
11496;SDS011;5805;51.542;7.230;2023-03-24T06:26:16;6.93;;;1.75;;
11496;SDS011;5805;51.542;7.230;2023-03-24T06:28:41;7.80;;;1.95;;
11496;SDS011;5805;51.542;7.230;2023-03-24T06:31:09;3.97;;;1.95;;
11496;SDS011;5805;51.542;7.230;2023-03-24T06:33:34;4.68;;;1.48;;
11496;SDS011;5805;51.542;7.230;2023-03-24T06:36:00;3.65;;;1.45;;
11496;SDS011;5805;51.542;7.230;2023-03-24T06:38:26;6.80;;;1.52;;
11496;SDS011;5805;51.542;7.230;2023-03-24T06:40:51;7.68;;;1.80;;
11496;SDS011;5805;51.542;7.230;2023-03-24T06:43:17;5.22;;;1.58;;
11496;SDS011;5805;51.542;7.230;2023-03-24T06:45:43;4.57;;;1.50;;
11496;SDS011;5805;51.542;7.230;2023-03-24T06:48:10;4.57;;;1.23;;
11496;SDS011;5805;51.542;7.230;2023-03-24T06:50:36;4.53;;;1.30;;
11496;SDS011;5805;51.542;7.230;2023-03-24T06:53:01;4.53;;;1.45;;
11496;SDS011;5805;51.542;7.230;2023-03-24T06:55:27;3.80;;;1.52;;
11496;SDS011;5805;51.542;7.230;2023-03-24T06:57:53;4.50;;;1.52;;
11496;SDS011;5805;51.542;7.230;2023-03-24T07:00:19;4.55;;;1.58;;
11496;SDS011;5805;51.542;7.230;2023-03-24T07:02:44;6.10;;;2.13;;
11496;SDS011;5805;51.542;7.230;2023-03-24T07:05:11;5.50;;;1.70;;
11496;SDS011;5805;51.542;7.230;2023-03-24T07:07:37;4.32;;;1.55;;
11496;SDS011;5805;51.542;7.230;2023-03-24T07:10:04;6.03;;;1.55;;
11496;SDS011;5805;51.542;7.230;2023-03-24T07:12:30;4.93;;;1.35;;
11496;SDS011;5805;51.542;7.230;2023-03-24T07:14:56;3.50;;;1.42;;
11496;SDS011;5805;51.542;7.230;2023-03-24T07:17:21;4.05;;;1.52;;
11496;SDS011;5805;51.542;7.230;2023-03-24T07:19:47;6.13;;;1.27;;
11496;SDS011;5805;51.542;7.230;2023-03-24T07:22:14;5.70;;;1.65;;
11496;SDS011;5805;51.542;7.230;2023-03-24T07:24:40;5.82;;;1.80;;
11496;SDS011;5805;51.542;7.230;2023-03-24T07:27:06;7.35;;;2.00;;
11496;SDS011;5805;51.542;7.230;2023-03-24T07:29:31;3.88;;;1.30;;
11496;SDS011;5805;51.542;7.230;2023-03-24T07:31:57;4.97;;;1.88;;
11496;SDS011;5805;51.542;7.230;2023-03-24T07:34:23;3.97;;;1.20;;
11496;SDS011;5805;51.542;7.230;2023-03-24T07:36:49;3.97;;;1.48;;
11496;SDS011;5805;51.542;7.230;2023-03-24T07:39:16;3.35;;;1.77;;
11496;SDS011;5805;51.542;7.230;2023-03-24T07:41:42;7.30;;;1.67;;
11496;SDS011;5805;51.542;7.230;2023-03-24T07:44:08;7.15;;;1.35;;
11496;SDS011;5805;51.542;7.230;2023-03-24T07:46:34;6.32;;;2.05;;
11496;SDS011;5805;51.542;7.230;2023-03-24T07:49:00;5.03;;;1.90;;
11496;SDS011;5805;51.542;7.230;2023-03-24T07:51:25;8.95;;;2.38;;
11496;SDS011;5805;51.542;7.230;2023-03-24T07:53:51;4.68;;;1.30;;
11496;SDS011;5805;51.542;7.230;2023-03-24T07:56:18;7.45;;;1.83;;
11496;SDS011;5805;51.542;7.230;2023-03-24T07:58:44;6.28;;;2.05;;
11496;SDS011;5805;51.542;7.230;2023-03-24T08:01:10;5.95;;;1.63;;
11496;SDS011;5805;51.542;7.230;2023-03-24T08:03:35;10.15;;;2.33;;
11496;SDS011;5805;51.542;7.230;2023-03-24T08:06:02;6.20;;;1.60;;
11496;SDS011;5805;51.542;7.230;2023-03-24T08:08:28;7.90;;;2.03;;
11496;SDS011;5805;51.542;7.230;2023-03-24T08:10:53;4.28;;;1.50;;
11496;SDS011;5805;51.542;7.230;2023-03-24T08:13:21;5.47;;;2.00;;
11496;SDS011;5805;51.542;7.230;2023-03-24T08:15:46;7.78;;;2.03;;
11496;SDS011;5805;51.542;7.230;2023-03-24T08:18:12;3.40;;;1.58;;
11496;SDS011;5805;51.542;7.230;2023-03-24T08:20:38;8.20;;;2.30;;
11496;SDS011;5805;51.542;7.230;2023-03-24T08:23:04;5.03;;;1.58;;
11496;SDS011;5805;51.542;7.230;2023-03-24T08:25:29;6.47;;;2.05;;
11496;SDS011;5805;51.542;7.230;2023-03-24T08:27:56;7.35;;;1.45;;
11496;SDS011;5805;51.542;7.230;2023-03-24T08:30:23;6.32;;;1.38;;
11496;SDS011;5805;51.542;7.230;2023-03-24T08:32:50;7.28;;;1.75;;
11496;SDS011;5805;51.542;7.230;2023-03-24T08:35:19;8.68;;;1.63;;
11496;SDS011;5805;51.542;7.230;2023-03-24T08:37:46;4.88;;;1.80;;
11496;SDS011;5805;51.542;7.230;2023-03-24T08:40:12;4.35;;;1.40;;
11496;SDS011;5805;51.542;7.230;2023-03-24T08:42:40;5.22;;;1.70;;
11496;SDS011;5805;51.542;7.230;2023-03-24T08:45:06;4.45;;;1.50;;
11496;SDS011;5805;51.542;7.230;2023-03-24T08:47:36;7.38;;;2.30;;
11496;SDS011;5805;51.542;7.230;2023-03-24T08:50:01;4.80;;;1.92;;
11496;SDS011;5805;51.542;7.230;2023-03-24T08:52:27;5.47;;;1.90;;
11496;SDS011;5805;51.542;7.230;2023-03-24T08:54:53;3.97;;;1.80;;
11496;SDS011;5805;51.542;7.230;2023-03-24T08:57:19;5.60;;;1.63;;
11496;SDS011;5805;51.542;7.230;2023-03-24T08:59:44;5.95;;;1.73;;
11496;SDS011;5805;51.542;7.230;2023-03-24T09:02:10;6.18;;;2.00;;
11496;SDS011;5805;51.542;7.230;2023-03-24T09:04:38;6.05;;;1.95;;
11496;SDS011;5805;51.542;7.230;2023-03-24T09:07:04;4.95;;;1.75;;
11496;SDS011;5805;51.542;7.230;2023-03-24T09:09:29;8.43;;;2.00;;
11496;SDS011;5805;51.542;7.230;2023-03-24T09:11:56;7.57;;;2.17;;
11496;SDS011;5805;51.542;7.230;2023-03-24T09:14:22;4.32;;;1.77;;
11496;SDS011;5805;51.542;7.230;2023-03-24T09:16:48;6.50;;;1.92;;
11496;SDS011;5805;51.542;7.230;2023-03-24T09:19:14;4.88;;;1.70;;
11496;SDS011;5805;51.542;7.230;2023-03-24T09:21:41;8.85;;;2.03;;
11496;SDS011;5805;51.542;7.230;2023-03-24T09:24:09;7.53;;;2.05;;
11496;SDS011;5805;51.542;7.230;2023-03-24T09:26:35;8.65;;;2.22;;
11496;SDS011;5805;51.542;7.230;2023-03-24T09:29:01;9.75;;;2.28;;
11496;SDS011;5805;51.542;7.230;2023-03-24T09:31:27;4.63;;;1.88;;
11496;SDS011;5805;51.542;7.230;2023-03-24T09:33:52;6.28;;;1.63;;
11496;SDS011;5805;51.542;7.230;2023-03-24T09:36:18;4.82;;;2.08;;
11496;SDS011;5805;51.542;7.230;2023-03-24T09:38:45;7.32;;;2.03;;
11496;SDS011;5805;51.542;7.230;2023-03-24T09:41:13;12.18;;;1.98;;
11496;SDS011;5805;51.542;7.230;2023-03-24T09:43:41;6.88;;;2.25;;
11496;SDS011;5805;51.542;7.230;2023-03-24T09:46:10;6.45;;;1.70;;
11496;SDS011;5805;51.542;7.230;2023-03-24T09:48:40;4.63;;;1.88;;
11496;SDS011;5805;51.542;7.230;2023-03-24T09:51:09;5.80;;;2.05;;
11496;SDS011;5805;51.542;7.230;2023-03-24T09:53:40;5.75;;;2.10;;
11496;SDS011;5805;51.542;7.230;2023-03-24T09:56:13;7.13;;;2.35;;
11496;SDS011;5805;51.542;7.230;2023-03-24T09:58:40;7.35;;;1.95;;
11496;SDS011;5805;51.542;7.230;2023-03-24T10:01:10;6.53;;;2.33;;
11496;SDS011;5805;51.542;7.230;2023-03-24T10:03:37;9.20;;;2.50;;
11496;SDS011;5805;51.542;7.230;2023-03-24T10:06:04;7.28;;;1.92;;
11496;SDS011;5805;51.542;7.230;2023-03-24T10:08:34;7.20;;;2.22;;
11496;SDS011;5805;51.542;7.230;2023-03-24T10:11:02;5.43;;;2.00;;
11496;SDS011;5805;51.542;7.230;2023-03-24T10:13:35;4.82;;;2.05;;
11496;SDS011;5805;51.542;7.230;2023-03-24T10:16:12;6.45;;;2.35;;
11496;SDS011;5805;51.542;7.230;2023-03-24T10:18:45;5.22;;;1.85;;
11496;SDS011;5805;51.542;7.230;2023-03-24T10:21:18;9.07;;;1.90;;
11496;SDS011;5805;51.542;7.230;2023-03-24T10:23:47;4.72;;;1.95;;
11496;SDS011;5805;51.542;7.230;2023-03-24T10:26:24;4.93;;;1.90;;
11496;SDS011;5805;51.542;7.230;2023-03-24T10:29:01;6.43;;;1.90;;
11496;SDS011;5805;51.542;7.230;2023-03-24T10:31:33;8.55;;;2.13;;
11496;SDS011;5805;51.542;7.230;2023-03-24T10:34:00;8.70;;;2.47;;
11496;SDS011;5805;51.542;7.230;2023-03-24T10:36:26;6.78;;;2.03;;
11496;SDS011;5805;51.542;7.230;2023-03-24T10:38:52;6.72;;;1.63;;
11496;SDS011;5805;51.542;7.230;2023-03-24T10:41:19;9.77;;;2.00;;
11496;SDS011;5805;51.542;7.230;2023-03-24T10:43:46;6.65;;;2.20;;
11496;SDS011;5805;51.542;7.230;2023-03-24T10:46:15;3.95;;;1.50;;
11496;SDS011;5805;51.542;7.230;2023-03-24T10:48:44;7.38;;;1.90;;
11496;SDS011;5805;51.542;7.230;2023-03-24T10:51:13;8.23;;;1.88;;
11496;SDS011;5805;51.542;7.230;2023-03-24T10:53:39;6.15;;;1.58;;
11496;SDS011;5805;51.542;7.230;2023-03-24T10:56:06;5.50;;;1.70;;
11496;SDS011;5805;51.542;7.230;2023-03-24T10:58:35;5.70;;;2.10;;
11496;SDS011;5805;51.542;7.230;2023-03-24T11:01:19;6.53;;;2.28;;
11496;SDS011;5805;51.542;7.230;2023-03-24T11:03:49;5.38;;;2.08;;
11496;SDS011;5805;51.542;7.230;2023-03-24T11:06:16;5.30;;;1.92;;
11496;SDS011;5805;51.542;7.230;2023-03-24T11:08:43;8.32;;;2.33;;
11496;SDS011;5805;51.542;7.230;2023-03-24T11:11:13;4.80;;;1.83;;
11496;SDS011;5805;51.542;7.230;2023-03-24T11:13:52;6.68;;;2.20;;
11496;SDS011;5805;51.542;7.230;2023-03-24T11:16:19;5.57;;;1.70;;
11496;SDS011;5805;51.542;7.230;2023-03-24T11:18:54;5.95;;;1.77;;
11496;SDS011;5805;51.542;7.230;2023-03-24T11:21:21;3.45;;;1.58;;
11496;SDS011;5805;51.542;7.230;2023-03-24T11:23:47;5.88;;;1.45;;
11496;SDS011;5805;51.542;7.230;2023-03-24T11:26:14;7.22;;;1.70;;
11496;SDS011;5805;51.542;7.230;2023-03-24T11:28:44;6.78;;;1.58;;
11496;SDS011;5805;51.542;7.230;2023-03-24T11:31:11;5.07;;;1.40;;
11496;SDS011;5805;51.542;7.230;2023-03-24T11:33:48;2.78;;;1.23;;
11496;SDS011;5805;51.542;7.230;2023-03-24T11:42:03;3.53;;;1.33;;
11496;SDS011;5805;51.542;7.230;2023-03-24T11:44:42;2.60;;;1.42;;
11496;SDS011;5805;51.542;7.230;2023-03-24T11:47:11;5.18;;;1.48;;
11496;SDS011;5805;51.542;7.230;2023-03-24T11:49:43;6.45;;;1.70;;
11496;SDS011;5805;51.542;7.230;2023-03-24T11:52:14;4.43;;;1.52;;
11496;SDS011;5805;51.542;7.230;2023-03-24T11:54:45;4.18;;;1.40;;
11496;SDS011;5805;51.542;7.230;2023-03-24T11:57:11;3.53;;;1.23;;
11496;SDS011;5805;51.542;7.230;2023-03-24T11:59:41;6.45;;;1.67;;
11496;SDS011;5805;51.542;7.230;2023-03-24T12:02:16;4.55;;;1.40;;
11496;SDS011;5805;51.542;7.230;2023-03-24T12:07:43;6.03;;;1.58;;
11496;SDS011;5805;51.542;7.230;2023-03-24T12:10:23;5.97;;;2.03;;
11496;SDS011;5805;51.542;7.230;2023-03-24T12:12:56;5.28;;;1.50;;
11496;SDS011;5805;51.542;7.230;2023-03-24T12:15:31;5.35;;;1.45;;
11496;SDS011;5805;51.542;7.230;2023-03-24T12:18:07;5.97;;;1.85;;
11496;SDS011;5805;51.542;7.230;2023-03-24T12:20:48;5.80;;;1.58;;
11496;SDS011;5805;51.542;7.230;2023-03-24T12:23:19;3.95;;;2.13;;
11496;SDS011;5805;51.542;7.230;2023-03-24T12:25:58;8.93;;;1.88;;
11496;SDS011;5805;51.542;7.230;2023-03-24T12:28:38;6.32;;;1.90;;
11496;SDS011;5805;51.542;7.230;2023-03-24T12:31:20;3.65;;;1.58;;
11496;SDS011;5805;51.542;7.230;2023-03-24T12:34:05;8.05;;;1.85;;
11496;SDS011;5805;51.542;7.230;2023-03-24T12:36:48;4.22;;;1.35;;
11496;SDS011;5805;51.542;7.230;2023-03-24T12:39:19;4.80;;;1.73;;
11496;SDS011;5805;51.542;7.230;2023-03-24T12:42:01;3.20;;;1.30;;
11496;SDS011;5805;51.542;7.230;2023-03-24T12:44:37;4.65;;;1.60;;
11496;SDS011;5805;51.542;7.230;2023-03-24T12:47:24;4.18;;;1.58;;
11496;SDS011;5805;51.542;7.230;2023-03-24T12:50:10;3.63;;;1.27;;
11496;SDS011;5805;51.542;7.230;2023-03-24T12:52:54;5.93;;;1.88;;
11496;SDS011;5805;51.542;7.230;2023-03-24T12:55:29;4.80;;;1.55;;
11496;SDS011;5805;51.542;7.230;2023-03-24T12:58:02;5.38;;;1.77;;
11496;SDS011;5805;51.542;7.230;2023-03-24T13:00:34;4.70;;;1.60;;
11496;SDS011;5805;51.542;7.230;2023-03-24T13:03:05;7.65;;;1.95;;
11496;SDS011;5805;51.542;7.230;2023-03-24T13:05:36;3.90;;;1.40;;
11496;SDS011;5805;51.542;7.230;2023-03-24T13:08:11;5.05;;;1.50;;
11496;SDS011;5805;51.542;7.230;2023-03-24T13:10:41;7.40;;;1.67;;
11496;SDS011;5805;51.542;7.230;2023-03-24T13:13:09;7.55;;;1.95;;
11496;SDS011;5805;51.542;7.230;2023-03-24T13:15:42;3.63;;;1.45;;
11496;SDS011;5805;51.542;7.230;2023-03-24T13:18:16;3.58;;;1.48;;
11496;SDS011;5805;51.542;7.230;2023-03-24T13:20:50;5.32;;;1.58;;
11496;SDS011;5805;51.542;7.230;2023-03-24T13:23:29;5.80;;;1.92;;
11496;SDS011;5805;51.542;7.230;2023-03-24T13:26:03;4.50;;;1.40;;
11496;SDS011;5805;51.542;7.230;2023-03-24T13:28:37;5.05;;;2.15;;
11496;SDS011;5805;51.542;7.230;2023-03-24T13:31:08;3.80;;;1.67;;
11496;SDS011;5805;51.542;7.230;2023-03-24T13:33:36;4.55;;;1.52;;
11496;SDS011;5805;51.542;7.230;2023-03-24T13:36:08;2.63;;;1.50;;
11496;SDS011;5805;51.542;7.230;2023-03-24T13:38:47;4.10;;;1.63;;
11496;SDS011;5805;51.542;7.230;2023-03-24T13:41:16;4.32;;;1.77;;
11496;SDS011;5805;51.542;7.230;2023-03-24T13:43:45;5.70;;;1.80;;
11496;SDS011;5805;51.542;7.230;2023-03-24T13:46:13;6.63;;;1.65;;
11496;SDS011;5805;51.542;7.230;2023-03-24T13:48:39;5.55;;;1.88;;
11496;SDS011;5805;51.542;7.230;2023-03-24T13:51:06;6.43;;;1.63;;
11496;SDS011;5805;51.542;7.230;2023-03-24T13:53:42;5.22;;;1.65;;
11496;SDS011;5805;51.542;7.230;2023-03-24T13:56:21;6.97;;;2.10;;
11496;SDS011;5805;51.542;7.230;2023-03-24T13:58:50;5.50;;;1.60;;
11496;SDS011;5805;51.542;7.230;2023-03-24T14:01:32;3.95;;;1.42;;
11496;SDS011;5805;51.542;7.230;2023-03-24T14:06:51;5.03;;;1.48;;
11496;SDS011;5805;51.542;7.230;2023-03-24T14:09:19;5.85;;;1.92;;
11496;SDS011;5805;51.542;7.230;2023-03-24T14:17:43;6.25;;;1.92;;
11496;SDS011;5805;51.542;7.230;2023-03-24T14:20:10;3.90;;;1.60;;
11496;SDS011;5805;51.542;7.230;2023-03-24T14:22:38;5.53;;;1.60;;
11496;SDS011;5805;51.542;7.230;2023-03-24T14:25:16;3.92;;;1.52;;
11496;SDS011;5805;51.542;7.230;2023-03-24T14:27:46;5.75;;;1.63;;
11496;SDS011;5805;51.542;7.230;2023-03-24T14:30:17;4.35;;;1.77;;
11496;SDS011;5805;51.542;7.230;2023-03-24T14:32:46;3.45;;;1.40;;
11496;SDS011;5805;51.542;7.230;2023-03-24T14:37:59;5.22;;;2.05;;
11496;SDS011;5805;51.542;7.230;2023-03-24T14:40:27;6.55;;;2.17;;
11496;SDS011;5805;51.542;7.230;2023-03-24T14:43:05;4.03;;;2.00;;
11496;SDS011;5805;51.542;7.230;2023-03-24T14:48:39;5.13;;;1.23;;
11496;SDS011;5805;51.542;7.230;2023-03-24T14:51:28;2.70;;;1.15;;
11496;SDS011;5805;51.542;7.230;2023-03-24T14:53:59;2.00;;;1.00;;
11496;SDS011;5805;51.542;7.230;2023-03-24T14:56:25;3.20;;;1.45;;
11496;SDS011;5805;51.542;7.230;2023-03-24T14:59:07;2.08;;;0.98;;
11496;SDS011;5805;51.542;7.230;2023-03-24T15:01:37;5.28;;;1.10;;
11496;SDS011;5805;51.542;7.230;2023-03-24T15:04:06;6.90;;;1.27;;
11496;SDS011;5805;51.542;7.230;2023-03-24T15:06:41;4.03;;;1.20;;
11496;SDS011;5805;51.542;7.230;2023-03-24T15:09:08;2.95;;;1.30;;
11496;SDS011;5805;51.542;7.230;2023-03-24T15:11:35;4.13;;;1.40;;
11496;SDS011;5805;51.542;7.230;2023-03-24T15:14:02;5.35;;;1.45;;
11496;SDS011;5805;51.542;7.230;2023-03-24T15:16:29;6.75;;;1.70;;
11496;SDS011;5805;51.542;7.230;2023-03-24T15:18:59;3.05;;;1.40;;
11496;SDS011;5805;51.542;7.230;2023-03-24T15:21:31;3.20;;;1.45;;
11496;SDS011;5805;51.542;7.230;2023-03-24T15:23:59;3.90;;;1.17;;
11496;SDS011;5805;51.542;7.230;2023-03-24T15:26:27;5.13;;;1.80;;
11496;SDS011;5805;51.542;7.230;2023-03-24T15:28:57;5.05;;;1.80;;
11496;SDS011;5805;51.542;7.230;2023-03-24T15:31:24;4.47;;;1.90;;
11496;SDS011;5805;51.542;7.230;2023-03-24T15:33:50;2.65;;;1.50;;
11496;SDS011;5805;51.542;7.230;2023-03-24T15:36:20;6.93;;;2.03;;
11496;SDS011;5805;51.542;7.230;2023-03-24T15:38:47;6.32;;;1.80;;
11496;SDS011;5805;51.542;7.230;2023-03-24T15:41:14;3.55;;;1.58;;
11496;SDS011;5805;51.542;7.230;2023-03-24T15:43:42;5.28;;;1.75;;
11496;SDS011;5805;51.542;7.230;2023-03-24T15:46:16;3.53;;;1.50;;